createdAt,value
2023-02-03T00:00:26.287Z,5.5
2023-02-03T00:01:26.068Z,5.5
2023-02-03T00:02:26.112Z,5.5
2023-02-03T00:03:26.193Z,5.5
2023-02-03T00:04:26.190Z,5.5
2023-02-03T00:05:26.221Z,5.5
2023-02-03T00:06:26.269Z,5.5
2023-02-03T00:07:26.295Z,5.5
2023-02-03T00:08:26.337Z,5.57143
2023-02-03T00:09:26.369Z,5.57143
2023-02-03T00:10:26.733Z,5.57143
2023-02-03T00:11:26.452Z,5.57143
2023-02-03T00:12:26.506Z,5.57143
2023-02-03T00:13:26.517Z,5.64286
2023-02-03T00:14:26.537Z,5.64286
2023-02-03T00:15:26.585Z,5.64286
2023-02-03T00:16:26.686Z,5.64286
2023-02-03T00:17:26.654Z,5.64286
2023-02-03T00:18:26.682Z,5.71429
2023-02-03T00:19:26.732Z,5.71429
2023-02-03T00:20:27.012Z,5.71429
2023-02-03T00:21:26.779Z,5.71429
2023-02-03T00:22:26.813Z,5.71429
2023-02-03T00:23:26.872Z,5.71429
2023-02-03T00:24:26.881Z,5.71429
2023-02-03T00:25:26.919Z,5.78571
2023-02-03T00:26:26.952Z,5.78571
2023-02-03T00:27:26.983Z,5.78571
2023-02-03T00:28:27.028Z,5.78571
2023-02-03T00:29:27.063Z,5.78571
2023-02-03T00:30:27.559Z,5.78571
2023-02-03T00:31:27.195Z,5.78571
2023-02-03T00:32:27.297Z,5.78571
2023-02-03T00:33:27.200Z,5.78571
2023-02-03T00:34:27.234Z,5.78571
2023-02-03T00:35:27.285Z,5.78571
2023-02-03T00:36:27.304Z,5.78571
2023-02-03T00:37:27.334Z,5.78571
2023-02-03T00:38:27.371Z,5.78571
2023-02-03T00:39:27.400Z,5.78571
2023-02-03T00:40:27.834Z,5.78571
2023-02-03T00:41:27.471Z,5.78571
2023-02-03T00:42:27.511Z,5.78571
2023-02-03T00:43:27.541Z,5.78571
2023-02-03T00:44:27.572Z,5.78571
2023-02-03T00:45:27.631Z,5.78571
2023-02-03T00:46:27.647Z,5.78571
2023-02-03T00:47:27.679Z,5.78571
2023-02-03T00:48:27.721Z,5.78571
2023-02-03T00:49:27.751Z,5.78571
2023-02-03T00:50:28.226Z,5.78571
2023-02-03T00:51:27.827Z,5.78571
2023-02-03T00:52:27.858Z,5.78571
2023-02-03T00:53:27.901Z,5.78571
2023-02-03T00:54:27.936Z,5.78571
2023-02-03T00:55:27.987Z,5.78571
2023-02-03T00:56:28.000Z,5.78571
2023-02-03T00:57:28.046Z,5.78571
2023-02-03T00:58:28.086Z,5.78571
2023-02-03T00:59:28.122Z,5.78571
2023-02-03T01:00:28.421Z,5.78571
2023-02-03T01:01:28.262Z,5.78571
2023-02-03T01:02:28.297Z,5.78571
2023-02-03T01:03:28.280Z,5.78571
2023-02-03T01:04:28.307Z,5.78571
2023-02-03T01:05:28.345Z,5.78571
2023-02-03T01:06:28.382Z,5.85714
2023-02-03T01:07:28.420Z,5.85714
2023-02-03T01:08:28.440Z,5.85714
2023-02-03T01:09:28.483Z,5.85714
2023-02-03T01:10:28.859Z,5.85714
2023-02-03T01:11:28.542Z,5.85714
2023-02-03T01:12:28.581Z,5.85714
2023-02-03T01:13:28.657Z,5.85714
2023-02-03T01:14:28.657Z,5.85714
2023-02-03T01:15:28.694Z,5.85714
2023-02-03T01:16:28.796Z,5.85714
2023-02-03T01:17:28.762Z,5.85714
2023-02-03T01:18:28.808Z,5.85714
2023-02-03T01:19:28.840Z,5.85714
2023-02-03T01:20:29.195Z,5.85714
2023-02-03T01:21:28.911Z,5.85714
2023-02-03T01:22:28.957Z,5.85714
2023-02-03T01:23:28.987Z,5.85714
2023-02-03T01:24:29.034Z,5.85714
2023-02-03T01:25:29.061Z,5.85714
2023-02-03T01:26:29.125Z,5.85714
2023-02-03T01:27:29.125Z,5.85714
2023-02-03T01:28:29.160Z,5.85714
2023-02-03T01:29:29.196Z,5.85714
2023-02-03T01:30:29.636Z,5.85714
2023-02-03T01:31:29.572Z,5.85714
2023-02-03T01:32:29.343Z,5.85714
2023-02-03T01:33:29.352Z,5.85714
2023-02-03T01:34:29.415Z,5.85714
2023-02-03T01:35:29.418Z,5.85714
2023-02-03T01:36:29.464Z,5.85714
2023-02-03T01:37:29.506Z,5.85714
2023-02-03T01:38:29.527Z,5.85714
2023-02-03T01:39:29.567Z,5.78571
2023-02-03T01:40:29.617Z,5.78571
2023-02-03T01:41:29.658Z,5.78571
2023-02-03T01:42:29.679Z,5.78571
2023-02-03T01:43:29.721Z,5.78571
2023-02-03T01:44:29.751Z,5.78571
2023-02-03T01:45:29.795Z,5.78571
2023-02-03T01:46:29.873Z,5.78571
2023-02-03T01:47:29.858Z,5.78571
2023-02-03T01:48:29.903Z,5.78571
2023-02-03T01:49:29.940Z,5.78571
2023-02-03T01:50:29.980Z,5.78571
2023-02-03T01:51:30.013Z,5.78571
2023-02-03T01:52:30.050Z,5.78571
2023-02-03T01:53:30.077Z,5.71429
2023-02-03T01:54:30.129Z,5.71429
2023-02-03T01:55:30.167Z,5.78571
2023-02-03T01:56:30.185Z,5.71429
2023-02-03T01:57:30.228Z,5.71429
2023-02-03T01:58:30.288Z,5.71429
2023-02-03T01:59:30.303Z,5.71429
2023-02-03T02:00:30.335Z,5.71429
2023-02-03T02:01:30.442Z,5.71429
2023-02-03T02:02:30.492Z,5.71429
2023-02-03T02:03:30.457Z,5.71429
2023-02-03T02:04:30.487Z,5.71429
2023-02-03T02:05:30.529Z,5.71429
2023-02-03T02:06:30.566Z,5.71429
2023-02-03T02:07:30.602Z,5.71429
2023-02-03T02:08:30.662Z,5.71429
2023-02-03T02:09:30.667Z,5.71429
2023-02-03T02:10:30.708Z,5.71429
2023-02-03T02:11:30.747Z,5.71429
2023-02-03T02:12:30.813Z,5.71429
2023-02-03T02:13:30.827Z,5.71429
2023-02-03T02:14:30.867Z,5.71429
2023-02-03T02:15:30.943Z,5.71429
2023-02-03T02:16:30.941Z,5.64286
2023-02-03T02:17:30.998Z,5.64286
2023-02-03T02:18:31.019Z,5.64286
2023-02-03T02:19:31.053Z,5.64286
2023-02-03T02:20:31.120Z,5.64286
2023-02-03T02:21:31.160Z,5.64286
2023-02-03T02:22:31.165Z,5.64286
2023-02-03T02:23:31.204Z,5.64286
2023-02-03T02:24:31.242Z,5.64286
2023-02-03T02:25:31.353Z,5.64286
2023-02-03T02:26:31.310Z,5.64286
2023-02-03T02:27:31.351Z,5.64286
2023-02-03T02:28:31.390Z,5.57143
2023-02-03T02:29:31.443Z,5.64286
2023-02-03T02:30:31.488Z,5.64286
2023-02-03T02:31:31.584Z,5.64286
2023-02-03T02:32:31.531Z,5.57143
2023-02-03T02:33:31.559Z,5.57143
2023-02-03T02:34:31.601Z,5.57143
2023-02-03T02:35:31.628Z,5.57143
2023-02-03T02:36:31.694Z,5.57143
2023-02-03T02:37:31.713Z,5.57143
2023-02-03T02:38:31.745Z,5.57143
2023-02-03T02:39:31.778Z,5.57143
2023-02-03T02:40:31.805Z,5.57143
2023-02-03T02:41:31.856Z,5.57143
2023-02-03T02:42:31.906Z,5.57143
2023-02-03T02:43:31.923Z,5.57143
2023-02-03T02:44:31.964Z,5.57143
2023-02-03T02:45:32.002Z,5.57143
2023-02-03T02:46:32.113Z,5.57143
2023-02-03T02:47:32.080Z,5.57143
2023-02-03T02:48:32.111Z,5.57143
2023-02-03T02:49:32.136Z,5.57143
2023-02-03T02:50:32.175Z,5.57143
2023-02-03T02:51:32.239Z,5.57143
2023-02-03T02:52:32.274Z,5.57143
2023-02-03T02:53:32.321Z,5.57143
2023-02-03T02:54:32.324Z,5.57143
2023-02-03T02:55:32.367Z,5.57143
2023-02-03T02:56:32.394Z,5.57143
2023-02-03T02:57:32.444Z,5.57143
2023-02-03T02:58:32.474Z,5.57143
2023-02-03T02:59:32.517Z,5.57143
2023-02-03T03:00:32.549Z,5.57143
2023-02-03T03:01:32.655Z,5.57143
2023-02-03T03:02:32.628Z,5.57143
2023-02-03T03:03:32.658Z,5.57143
2023-02-03T03:04:32.774Z,5.57143
2023-02-03T03:05:32.722Z,5.57143
2023-02-03T03:06:32.762Z,5.57143
2023-02-03T03:07:32.781Z,5.57143
2023-02-03T03:08:32.820Z,5.57143
2023-02-03T03:09:32.869Z,5.57143
2023-02-03T03:10:32.913Z,5.57143
2023-02-03T03:11:32.931Z,5.57143
2023-02-03T03:12:32.963Z,5.57143
2023-02-03T03:13:32.996Z,5.57143
2023-02-03T03:14:33.031Z,5.57143
2023-02-03T03:15:33.095Z,5.57143
2023-02-03T03:16:33.108Z,5.57143
2023-02-03T03:17:33.136Z,5.57143
2023-02-03T03:18:33.173Z,5.5
2023-02-03T03:19:33.210Z,5.57143
2023-02-03T03:20:33.244Z,5.5
2023-02-03T03:21:33.291Z,5.5
2023-02-03T03:22:33.307Z,5.5
2023-02-03T03:23:33.368Z,5.57143
2023-02-03T03:24:33.380Z,5.5
2023-02-03T03:25:33.414Z,5.5
2023-02-03T03:26:33.479Z,5.5
2023-02-03T03:27:33.486Z,5.5
2023-02-03T03:28:33.524Z,5.57143
2023-02-03T03:29:33.562Z,5.57143
2023-02-03T03:30:33.653Z,5.57143
2023-02-03T03:31:33.755Z,5.57143
2023-02-03T03:32:33.667Z,5.57143
2023-02-03T03:33:33.708Z,5.57143
2023-02-03T03:34:33.743Z,5.57143
2023-02-03T03:35:33.774Z,5.57143
2023-02-03T03:36:33.810Z,5.57143
2023-02-03T03:37:33.858Z,5.57143
2023-02-03T03:38:33.885Z,5.64286
2023-02-03T03:39:33.927Z,5.64286
2023-02-03T03:40:33.952Z,5.64286
2023-02-03T03:41:33.979Z,5.64286
2023-02-03T03:42:34.042Z,5.64286
2023-02-03T03:43:34.053Z,5.71429
2023-02-03T03:44:34.111Z,5.71429
2023-02-03T03:45:34.138Z,5.71429
2023-02-03T03:46:34.208Z,5.71429
2023-02-03T03:47:34.222Z,5.71429
2023-02-03T03:48:34.245Z,5.71429
2023-02-03T03:49:34.291Z,5.71429
2023-02-03T03:50:34.309Z,5.71429
2023-02-03T03:51:34.343Z,5.78571
2023-02-03T03:52:34.385Z,5.78571
2023-02-03T03:53:34.620Z,5.78571
2023-02-03T03:54:34.448Z,5.78571
2023-02-03T03:55:34.483Z,5.85714
2023-02-03T03:56:34.520Z,5.85714
2023-02-03T03:57:34.549Z,5.85714
2023-02-03T03:58:34.592Z,5.85714
2023-02-03T03:59:34.615Z,5.92857
2023-02-03T04:00:34.662Z,5.92857
2023-02-03T04:01:34.794Z,5.92857
2023-02-03T04:02:34.867Z,5.92857
2023-02-03T04:03:34.785Z,6
2023-02-03T04:04:34.805Z,6
2023-02-03T04:05:34.837Z,6
2023-02-03T04:06:34.870Z,6.07143
2023-02-03T04:07:34.903Z,6.07143
2023-02-03T04:08:34.989Z,6.07143
2023-02-03T04:09:35.016Z,6.14286
2023-02-03T04:10:35.028Z,6.14286
2023-02-03T04:11:35.071Z,6.14286
2023-02-03T04:12:35.123Z,6.14286
2023-02-03T04:13:35.139Z,6.21429
2023-02-03T04:14:35.181Z,6.21429
2023-02-03T04:15:35.220Z,6.21429
2023-02-03T04:16:35.264Z,6.21429
2023-02-03T04:17:35.298Z,6.21429
2023-02-03T04:18:35.330Z,6.28571
2023-02-03T04:19:35.364Z,6.28571
2023-02-03T04:20:35.390Z,6.28571
2023-02-03T04:21:35.424Z,6.35714
2023-02-03T04:22:35.480Z,6.35714
2023-02-03T04:23:35.542Z,6.35714
2023-02-03T04:24:35.553Z,6.35714
2023-02-03T04:25:35.582Z,6.35714
2023-02-03T04:26:35.615Z,6.42857
2023-02-03T04:27:35.676Z,6.42857
2023-02-03T04:28:35.698Z,6.42857
2023-02-03T04:29:35.739Z,6.42857
2023-02-03T04:30:35.839Z,6.5
2023-02-03T04:31:35.906Z,6.5
2023-02-03T04:32:35.840Z,6.5
2023-02-03T04:33:35.876Z,6.5
2023-02-03T04:34:35.906Z,6.57143
2023-02-03T04:35:35.942Z,6.57143
2023-02-03T04:36:35.970Z,6.57143
2023-02-03T04:37:36.009Z,6.57143
2023-02-03T04:38:36.062Z,6.64286
2023-02-03T04:39:36.077Z,6.64286
2023-02-03T04:40:36.113Z,6.64286
2023-02-03T04:41:36.142Z,6.64286
2023-02-03T04:42:36.203Z,6.71429
2023-02-03T04:43:36.210Z,6.71429
2023-02-03T04:44:36.247Z,6.78571
2023-02-03T04:45:36.332Z,6.78571
2023-02-03T04:46:36.319Z,6.78571
2023-02-03T04:47:36.381Z,6.85714
2023-02-03T04:48:36.391Z,6.85714
2023-02-03T04:49:36.445Z,6.85714
2023-02-03T04:50:36.465Z,6.85714
2023-02-03T04:51:36.507Z,6.85714
2023-02-03T04:52:36.542Z,6.92857
2023-02-03T04:53:36.574Z,7
2023-02-03T04:54:36.635Z,7
2023-02-03T04:55:36.653Z,7
2023-02-03T04:56:36.686Z,7.07143
2023-02-03T04:57:36.716Z,7.07143
2023-02-03T04:58:36.752Z,7.07143
2023-02-03T04:59:36.793Z,7.14286
2023-02-03T05:00:36.833Z,7.14286
2023-02-03T05:01:36.872Z,7.14286
2023-02-03T05:02:36.903Z,7.21429
2023-02-03T05:03:37.005Z,7.21429
2023-02-03T05:04:36.984Z,7.21429
2023-02-03T05:05:36.996Z,7.21429
2023-02-03T05:06:37.053Z,7.28571
2023-02-03T05:07:37.072Z,7.28571
2023-02-03T05:08:37.118Z,7.35714
2023-02-03T05:09:37.147Z,7.35714
2023-02-03T05:10:37.190Z,7.35714
2023-02-03T05:11:37.210Z,7.35714
2023-02-03T05:12:37.240Z,7.42857
2023-02-03T05:13:37.276Z,7.42857
2023-02-03T05:14:37.331Z,7.42857
2023-02-03T05:15:37.354Z,7.5
2023-02-03T05:16:37.419Z,7.5
2023-02-03T05:17:37.418Z,7.5
2023-02-03T05:18:37.457Z,7.57143
2023-02-03T05:19:37.497Z,7.57143
2023-02-03T05:20:37.581Z,7.57143
2023-02-03T05:21:37.580Z,7.64286
2023-02-03T05:22:37.616Z,7.64286
2023-02-03T05:23:37.649Z,7.64286
2023-02-03T05:24:37.683Z,7.71429
2023-02-03T05:25:37.726Z,7.71429
2023-02-03T05:26:37.767Z,7.71429
2023-02-03T05:27:37.814Z,7.71429
2023-02-03T05:28:37.838Z,7.78571
2023-02-03T05:29:37.888Z,7.78571
2023-02-03T05:30:37.953Z,7.85714
2023-02-03T05:31:38.008Z,7.85714
2023-02-03T05:32:37.979Z,7.85714
2023-02-03T05:33:38.047Z,7.85714
2023-02-03T05:34:38.698Z,7.92857
2023-02-03T05:35:38.079Z,7.92857
2023-02-03T05:36:38.135Z,7.92857
2023-02-03T05:37:38.154Z,7.92857
2023-02-03T05:38:38.197Z,8
2023-02-03T05:39:38.227Z,8
2023-02-03T05:40:38.280Z,8
2023-02-03T05:41:38.325Z,8.07143
2023-02-03T05:42:38.345Z,8.07143
2023-02-03T05:43:38.382Z,8.07143
2023-02-03T05:44:38.407Z,8.07143
2023-02-03T05:45:38.544Z,8.07143
2023-02-03T05:46:38.514Z,8.14286
2023-02-03T05:47:38.515Z,8.14286
2023-02-03T05:48:38.551Z,8.14286
2023-02-03T05:49:38.580Z,8.14286
2023-02-03T05:50:38.911Z,8.14286
2023-02-03T05:51:38.710Z,8.14286
2023-02-03T05:52:38.683Z,8.21429
2023-02-03T05:53:38.742Z,8.21429
2023-02-03T05:54:38.765Z,8.21429
2023-02-03T05:55:38.798Z,8.21429
2023-02-03T05:56:38.845Z,8.28571
2023-02-03T05:57:38.872Z,8.28571
2023-02-03T05:58:38.914Z,8.28571
2023-02-03T05:59:38.953Z,8.28571
2023-02-03T06:00:38.994Z,8.28571
2023-02-03T06:01:39.024Z,8.35714
2023-02-03T06:02:39.067Z,8.35714
2023-02-03T06:03:39.249Z,8.35714
2023-02-03T06:04:39.203Z,8.35714
2023-02-03T06:05:39.171Z,8.35714
2023-02-03T06:06:39.250Z,8.35714
2023-02-03T06:07:39.243Z,8.42857
2023-02-03T06:08:39.288Z,8.42857
2023-02-03T06:09:39.317Z,8.42857
2023-02-03T06:10:39.356Z,8.42857
2023-02-03T06:11:39.383Z,8.42857
2023-02-03T06:12:39.423Z,8.5
2023-02-03T06:13:39.485Z,8.5
2023-02-03T06:14:39.491Z,8.5
2023-02-03T06:15:39.530Z,8.5
2023-02-03T06:16:39.577Z,8.5
2023-02-03T06:17:39.601Z,8.5
2023-02-03T06:18:39.638Z,8.5
2023-02-03T06:19:39.673Z,8.57143
2023-02-03T06:20:39.702Z,8.57143
2023-02-03T06:21:39.739Z,8.57143
2023-02-03T06:22:39.774Z,8.57143
2023-02-03T06:23:39.808Z,8.57143
2023-02-03T06:24:39.843Z,8.57143
2023-02-03T06:25:39.892Z,8.57143
2023-02-03T06:26:39.917Z,8.64286
2023-02-03T06:27:39.985Z,8.64286
2023-02-03T06:28:39.989Z,8.64286
2023-02-03T06:29:40.027Z,8.64286
2023-02-03T06:30:40.216Z,8.64286
2023-02-03T06:31:40.220Z,8.64286
2023-02-03T06:32:40.127Z,8.71429
2023-02-03T06:33:40.153Z,8.71429
2023-02-03T06:34:40.195Z,8.71429
2023-02-03T06:35:40.238Z,8.71429
2023-02-03T06:36:40.268Z,8.71429
2023-02-03T06:37:40.301Z,8.71429
2023-02-03T06:38:40.340Z,8.71429
2023-02-03T06:39:40.375Z,8.78571
2023-02-03T06:40:40.407Z,8.78571
2023-02-03T06:41:40.436Z,8.78571
2023-02-03T06:42:40.480Z,8.78571
2023-02-03T06:43:40.519Z,8.85714
2023-02-03T06:44:40.558Z,8.85714
2023-02-03T06:45:40.588Z,8.85714
2023-02-03T06:46:40.632Z,8.85714
2023-02-03T06:47:40.650Z,8.85714
2023-02-03T06:48:40.708Z,8.85714
2023-02-03T06:49:40.722Z,8.85714
2023-02-03T06:50:40.756Z,8.92857
2023-02-03T06:51:40.827Z,8.92857
2023-02-03T06:52:40.832Z,8.92857
2023-02-03T06:53:40.854Z,8.92857
2023-02-03T06:54:40.895Z,8.92857
2023-02-03T06:55:40.963Z,8.92857
2023-02-03T06:56:40.980Z,8.92857
2023-02-03T06:57:41.004Z,8.92857
2023-02-03T06:58:41.047Z,9
2023-02-03T06:59:41.073Z,9
2023-02-03T07:00:41.120Z,9
2023-02-03T07:01:41.193Z,9
2023-02-03T07:02:41.228Z,9
2023-02-03T07:03:41.211Z,9
2023-02-03T07:04:41.247Z,9.07143
2023-02-03T07:05:41.289Z,9.07143
2023-02-03T07:06:41.333Z,9.07143
2023-02-03T07:07:41.360Z,9.07143
2023-02-03T07:08:41.389Z,9.07143
2023-02-03T07:09:41.427Z,9.07143
2023-02-03T07:10:41.469Z,9.07143
2023-02-03T07:11:41.511Z,9.07143
2023-02-03T07:12:41.564Z,9.07143
2023-02-03T07:13:41.589Z,9.14286
2023-02-03T07:14:41.618Z,9.14286
2023-02-03T07:15:41.689Z,9.14286
2023-02-03T07:16:41.696Z,9.14286
2023-02-03T07:17:41.732Z,9.14286
2023-02-03T07:18:47.495Z,9.14286
2023-02-03T07:19:41.793Z,9.14286
2023-02-03T07:20:41.832Z,9.14286
2023-02-03T07:21:41.878Z,9.14286
2023-02-03T07:22:41.903Z,9.14286
2023-02-03T07:23:41.981Z,9.14286
2023-02-03T07:24:41.986Z,9.14286
2023-02-03T07:25:42.030Z,9.14286
2023-02-03T07:26:42.052Z,9.14286
2023-02-03T07:27:42.124Z,9.14286
2023-02-03T07:28:42.127Z,9.14286
2023-02-03T07:29:42.177Z,9.14286
2023-02-03T07:30:42.228Z,9.14286
2023-02-03T07:31:42.372Z,9.14286
2023-02-03T07:32:42.281Z,9.14286
2023-02-03T07:33:42.306Z,9.14286
2023-02-03T07:34:42.345Z,9.14286
2023-02-03T07:35:42.370Z,9.14286
2023-02-03T07:36:42.407Z,9.14286
2023-02-03T07:37:42.450Z,9.14286
2023-02-03T07:38:42.488Z,9.14286
2023-02-03T07:39:42.550Z,9.14286
2023-02-03T07:40:42.552Z,9.14286
2023-02-03T07:41:42.583Z,9.21429
2023-02-03T07:42:42.648Z,9.21429
2023-02-03T07:43:42.647Z,9.21429
2023-02-03T07:44:42.696Z,9.21429
2023-02-03T07:45:42.715Z,9.21429
2023-02-03T07:46:42.858Z,9.21429
2023-02-03T07:47:42.793Z,9.21429
2023-02-03T07:48:42.825Z,9.21429
2023-02-03T07:49:42.852Z,9.21429
2023-02-03T07:50:42.893Z,9.21429
2023-02-03T07:51:42.983Z,9.21429
2023-02-03T07:52:42.969Z,9.21429
2023-02-03T07:53:42.986Z,9.28571
2023-02-03T07:54:43.023Z,9.21429
2023-02-03T07:55:43.066Z,9.21429
2023-02-03T07:56:43.456Z,9.28571
2023-02-03T07:57:43.138Z,9.28571
2023-02-03T07:58:43.164Z,9.28571
2023-02-03T07:59:43.203Z,9.21429
2023-02-03T08:00:43.223Z,9.21429
2023-02-03T08:01:43.350Z,9.21429
2023-02-03T08:02:43.295Z,9.21429
2023-02-03T08:03:43.353Z,9.21429
2023-02-03T08:04:43.377Z,9.28571
2023-02-03T08:05:43.450Z,9.28571
2023-02-03T08:06:43.436Z,9.28571
2023-02-03T08:07:43.470Z,9.28571
2023-02-03T08:08:43.509Z,9.28571
2023-02-03T08:09:43.543Z,9.28571
2023-02-03T08:10:43.582Z,9.28571
2023-02-03T08:11:43.608Z,9.28571
2023-02-03T08:12:45.219Z,9.28571
2023-02-03T08:13:43.684Z,9.28571
2023-02-03T08:14:43.722Z,9.28571
2023-02-03T08:15:43.797Z,9.28571
2023-02-03T08:16:43.803Z,9.28571
2023-02-03T08:17:43.843Z,9.28571
2023-02-03T08:18:43.878Z,9.28571
2023-02-03T08:19:43.916Z,9.28571
2023-02-03T08:20:43.964Z,9.28571
2023-02-03T08:21:43.992Z,9.28571
2023-02-03T08:22:44.029Z,9.28571
2023-02-03T08:23:44.058Z,9.28571
2023-02-03T08:24:44.091Z,9.28571
2023-02-03T08:25:44.139Z,9.35714
2023-02-03T08:26:44.169Z,9.35714
2023-02-03T08:27:44.252Z,9.35714
2023-02-03T08:28:44.254Z,9.35714
2023-02-03T08:29:44.291Z,9.35714
2023-02-03T08:30:44.324Z,9.35714
2023-02-03T08:31:44.436Z,9.35714
2023-02-03T08:32:47.439Z,9.35714
2023-02-03T08:33:44.456Z,9.42857
2023-02-03T08:34:44.466Z,9.42857
2023-02-03T08:35:44.495Z,9.42857
2023-02-03T08:36:44.535Z,9.42857
2023-02-03T08:37:44.559Z,9.42857
2023-02-03T08:38:44.605Z,9.42857
2023-02-03T08:39:44.653Z,9.5
2023-02-03T08:40:44.725Z,9.5
2023-02-03T08:41:44.711Z,9.5
2023-02-03T08:42:44.739Z,9.5
2023-02-03T08:43:44.769Z,9.5
2023-02-03T08:44:44.812Z,9.5
2023-02-03T08:45:44.912Z,9.5
2023-02-03T08:46:44.904Z,9.5
2023-02-03T08:47:44.905Z,9.5
2023-02-03T08:48:44.937Z,9.5
2023-02-03T08:49:44.965Z,9.5
2023-02-03T08:50:45.010Z,9.5
2023-02-03T08:51:45.058Z,9.5
2023-02-03T08:52:45.080Z,9.5
2023-02-03T08:53:45.106Z,9.57143
2023-02-03T08:54:45.182Z,9.5
2023-02-03T08:55:45.181Z,9.57143
2023-02-03T08:56:45.212Z,9.57143
2023-02-03T08:57:45.257Z,9.57143
2023-02-03T08:58:45.296Z,9.57143
2023-02-03T08:59:45.330Z,9.57143
2023-02-03T09:00:45.411Z,9.57143
2023-02-03T09:01:45.399Z,9.57143
2023-02-03T09:02:45.455Z,9.64286
2023-02-03T09:03:45.505Z,9.64286
2023-02-03T09:04:45.626Z,9.64286
2023-02-03T09:05:45.531Z,9.64286
2023-02-03T09:06:45.568Z,9.64286
2023-02-03T09:07:45.596Z,9.71429
2023-02-03T09:08:45.662Z,9.71429
2023-02-03T09:09:45.673Z,9.71429
2023-02-03T09:10:45.703Z,9.71429
2023-02-03T09:11:45.735Z,9.71429
2023-02-03T09:12:45.779Z,9.71429
2023-02-03T09:13:45.791Z,9.71429
2023-02-03T09:14:45.843Z,9.78571
2023-02-03T09:15:45.861Z,9.78571
2023-02-03T09:16:46.060Z,9.78571
2023-02-03T09:17:45.939Z,9.78571
2023-02-03T09:18:45.966Z,9.78571
2023-02-03T09:19:46.039Z,9.78571
2023-02-03T09:20:46.037Z,9.78571
2023-02-03T09:21:48.456Z,9.78571
2023-02-03T09:22:46.109Z,9.78571
2023-02-03T09:23:46.159Z,9.85714
2023-02-03T09:24:46.197Z,9.85714
2023-02-03T09:25:48.592Z,9.85714
2023-02-03T09:26:46.277Z,9.85714
2023-02-03T09:27:46.420Z,9.85714
2023-02-03T09:28:46.320Z,9.85714
2023-02-03T09:29:46.360Z,9.85714
2023-02-03T09:30:46.406Z,9.85714
2023-02-03T09:31:46.449Z,9.85714
2023-02-03T09:32:46.459Z,9.85714
2023-02-03T09:33:46.530Z,9.92857
2023-02-03T09:34:46.539Z,9.92857
2023-02-03T09:35:46.570Z,9.92857
2023-02-03T09:36:46.595Z,9.92857
2023-02-03T09:37:46.643Z,9.92857
2023-02-03T09:38:46.691Z,9.92857
2023-02-03T09:39:46.712Z,9.92857
2023-02-03T09:40:46.758Z,9.92857
2023-02-03T09:41:46.772Z,10
2023-02-03T09:42:46.812Z,10
2023-02-03T09:43:46.862Z,10
2023-02-03T09:44:46.890Z,10
2023-02-03T09:45:47.029Z,10
2023-02-03T09:46:46.962Z,10
2023-02-03T09:47:46.997Z,10
2023-02-03T09:48:47.046Z,10
2023-02-03T09:49:47.072Z,10
2023-02-03T09:50:47.106Z,10.0714
2023-02-03T09:51:47.143Z,10.0714
2023-02-03T09:52:47.184Z,10.0714
2023-02-03T09:53:47.259Z,10.0714
2023-02-03T09:54:47.254Z,10.0714
2023-02-03T09:55:47.309Z,10.0714
2023-02-03T09:56:47.329Z,10.0714
2023-02-03T09:57:47.360Z,10.1429
2023-02-03T09:58:47.405Z,10.1429
2023-02-03T09:59:47.432Z,10.1429
2023-02-03T10:00:47.468Z,10.1429
2023-02-03T10:01:47.505Z,10.1429
2023-02-03T10:02:47.602Z,10.1429
2023-02-03T10:03:47.577Z,10.2143
2023-02-03T10:04:47.615Z,10.2143
2023-02-03T10:05:47.665Z,10.2143
2023-02-03T10:06:47.685Z,10.2143
2023-02-03T10:07:49.728Z,10.2857
2023-02-03T10:08:47.776Z,10.2857
2023-02-03T10:09:47.805Z,10.2857
2023-02-03T10:10:47.829Z,10.2857
2023-02-03T10:11:47.873Z,10.2857
2023-02-03T10:12:47.896Z,10.2857
2023-02-03T10:13:47.973Z,10.2857
2023-02-03T10:14:47.978Z,10.3571
2023-02-03T10:15:48.009Z,10.3571
2023-02-03T10:16:48.109Z,10.3571
2023-02-03T10:17:48.080Z,10.4286
2023-02-03T10:18:48.142Z,10.4286
2023-02-03T10:19:48.145Z,10.4286
2023-02-03T10:20:48.162Z,10.4286
2023-02-03T10:21:48.202Z,10.4286
2023-02-03T10:22:48.240Z,10.4286
2023-02-03T10:23:48.298Z,10.4286
2023-02-03T10:24:48.314Z,10.4286
2023-02-03T10:25:48.392Z,10.4286
2023-02-03T10:26:48.371Z,10.4286
2023-02-03T10:27:48.615Z,10.5
2023-02-03T10:28:48.446Z,10.4286
2023-02-03T10:29:48.491Z,10.5
2023-02-03T10:30:48.644Z,10.5
2023-02-03T10:31:48.652Z,10.5
2023-02-03T10:32:48.600Z,10.5
2023-02-03T10:33:48.636Z,10.5
2023-02-03T10:34:48.672Z,10.5
2023-02-03T10:35:48.710Z,10.5
2023-02-03T10:36:48.733Z,10.5
2023-02-03T10:37:48.767Z,10.5
2023-02-03T10:38:48.815Z,10.5
2023-02-03T10:39:48.841Z,10.5714
2023-02-03T10:40:48.991Z,10.5714
2023-02-03T10:41:48.911Z,10.5714
2023-02-03T10:42:48.940Z,10.5
2023-02-03T10:43:48.976Z,10.5
2023-02-03T10:44:49.028Z,10.5
2023-02-03T10:45:49.075Z,10.5
2023-02-03T10:46:49.089Z,10.5
2023-02-03T10:47:49.117Z,10.5
2023-02-03T10:48:49.153Z,10.5
2023-02-03T10:49:49.197Z,10.4286
2023-02-03T10:50:49.242Z,10.3571
2023-02-03T10:51:49.301Z,10.2857
2023-02-03T10:52:49.307Z,10.1429
2023-02-03T10:53:49.348Z,10.0714
2023-02-03T10:54:49.392Z,10
2023-02-03T10:55:49.414Z,10
2023-02-03T10:56:49.458Z,9.92857
2023-02-03T10:57:49.491Z,9.92857
2023-02-03T10:58:49.526Z,9.92857
2023-02-03T10:59:49.554Z,9.92857
2023-02-03T11:00:49.593Z,9.92857
2023-02-03T11:01:49.675Z,9.92857
2023-02-03T11:02:49.744Z,9.92857
2023-02-03T11:03:49.697Z,9.92857
2023-02-03T11:04:49.731Z,9.92857
2023-02-03T11:05:49.766Z,10
2023-02-03T11:06:49.804Z,10
2023-02-03T11:07:49.877Z,10
2023-02-03T11:08:49.875Z,10
2023-02-03T11:09:49.910Z,10
2023-02-03T11:10:49.935Z,10
2023-02-03T11:11:49.977Z,10
2023-02-03T11:12:50.024Z,10
2023-02-03T11:13:50.061Z,10
2023-02-03T11:14:50.096Z,10
2023-02-03T11:15:50.155Z,10
2023-02-03T11:16:50.163Z,10
2023-02-03T11:17:50.197Z,10
2023-02-03T11:18:50.237Z,10
2023-02-03T11:19:50.285Z,10
2023-02-03T11:20:50.312Z,10
2023-02-03T11:21:50.339Z,10
2023-02-03T11:22:50.391Z,10
2023-02-03T11:23:50.468Z,10
2023-02-03T11:24:50.435Z,10
2023-02-03T11:25:50.488Z,10.0714
2023-02-03T11:26:50.520Z,10.0714
2023-02-03T11:27:50.592Z,10.0714
2023-02-03T11:28:50.609Z,10
2023-02-03T11:29:50.621Z,10.0714
2023-02-03T11:30:50.732Z,10
2023-02-03T11:31:50.803Z,10
2023-02-03T11:32:50.726Z,10
2023-02-03T11:33:50.756Z,10
2023-02-03T11:34:50.798Z,10
2023-02-03T11:35:50.832Z,10
2023-02-03T11:36:50.875Z,10
2023-02-03T11:37:50.895Z,9.92857
2023-02-03T11:38:50.940Z,9.92857
2023-02-03T11:39:50.981Z,9.92857
2023-02-03T11:40:51.032Z,9.92857
2023-02-03T11:41:51.055Z,9.85714
2023-02-03T11:42:51.096Z,9.85714
2023-02-03T11:43:51.119Z,9.78571
2023-02-03T11:44:51.156Z,9.78571
2023-02-03T11:45:51.228Z,9.78571
2023-02-03T11:46:51.331Z,9.78571
2023-02-03T11:47:51.272Z,9.78571
2023-02-03T11:48:51.315Z,9.85714
2023-02-03T11:49:51.323Z,9.85714
2023-02-03T11:50:51.371Z,9.85714
2023-02-03T11:51:51.394Z,9.92857
2023-02-03T11:52:51.441Z,9.92857
2023-02-03T11:53:56.921Z,9.92857
2023-02-03T11:54:51.497Z,9.92857
2023-02-03T11:55:51.530Z,10
2023-02-03T11:56:51.570Z,10
2023-02-03T11:57:51.608Z,10
2023-02-03T11:58:51.645Z,10
2023-02-03T11:59:51.677Z,10
2023-02-03T12:00:51.715Z,10
2023-02-03T12:01:51.745Z,10
2023-02-03T12:02:51.859Z,10.0714
2023-02-03T12:03:51.809Z,10.0714
2023-02-03T12:04:51.888Z,10.0714
2023-02-03T12:05:51.877Z,10.0714
2023-02-03T12:06:51.902Z,10.0714
2023-02-03T12:07:51.991Z,10.0714
2023-02-03T12:08:51.989Z,10.1429
2023-02-03T12:09:52.019Z,10.1429
2023-02-03T12:10:52.073Z,10.1429
2023-02-03T12:11:52.089Z,10.1429
2023-02-03T12:12:52.154Z,10.1429
2023-02-03T12:13:52.210Z,10.1429
2023-02-03T12:14:52.195Z,10.1429
2023-02-03T12:15:52.261Z,10.1429
2023-02-03T12:16:52.258Z,10.1429
2023-02-03T12:17:52.298Z,10.1429
2023-02-03T12:18:52.397Z,10.2143
2023-02-03T12:19:52.386Z,10.2143
2023-02-03T12:20:52.403Z,10.2143
2023-02-03T12:21:52.445Z,10.2143
2023-02-03T12:22:52.474Z,10.2143